SBRJSBVT

Guest
Details From SBRJ - Santos-Dumont
To SBVT - Goiabeiras
Flight Number -
Tags generated
Created
Modified
Stats Distance 226 nm / 419 km
Max Altitude 21,600 ft / 6,584 m
Waypoints 5
Social Downloads 8
Likes 0
Share VATSIM

Download

Looking for another format? Having issues loading an existing format? Contact us
Advertisement - Login to hide

Notes

Basic altitude profile: - Ascent Rate: 1200ft/min - Ascent Speed: 130kts - Cruise Altitude: 11500ft - Cruise Speed: 180kts - Descent Rate: 700ft/min - Descent Speed: 160kts Options: - Use NATs: no - Use PACOTS: no - Use low airways: yes - Use high airways: no

Route

SBRJ FIGOS W6 JOSNA SBVT

ID Type Via Altitude Latitude Longitude Leg Dist Tot Dist Heading (true) Name
O SBRJ APT - 0 ft / 0 m -22.91046˚ -43.16313˚ - 0 nm - Santos-Dumont
FIGOS FIX - 19,400 ft / 5,913 m -22.30917˚ -42.42517˚ 54 nm 54 nm 49° / 48° -
PANAS FIX W6 (AWY-LO) 21,600 ft / 6,584 m -21.46717˚ -41.53883˚ 70 nm 125 nm 44° / 44° -
JOSNA FIX W6 (AWY-LO) 9,500 ft / 2,896 m -20.73133˚ -40.77583˚ 61 nm 186 nm 44° / 44° -
O SBVT APT - 0 ft / 0 m -20.25561˚ -40.28889˚ 39 nm 226 nm 44° / 44° Goiabeiras

Altitude Profile

Advertisement - Login to hide

Weather


0- 5 10 15 20 25 30 35+ Temperature / ° C

Clouds and Precipitation
Forecast for 2018-05-20 18:00 UTC. Updated 3 hours ago

Ground ~20,000 ft ~40,000 ft Winds

SBRJ

Details ICAO SBRJ (SDU)
Name Santos-Dumont
Region Brazil
Timezone Unknown (UTC+0.0)
Stats Elevation 11 ft / 3 m (AMSL)
Location -22.910460° -43.163133°
Runways 2
Magnetic Variation 22.824° W

METAR

SBRJ 201900Z 19007KT CAVOK 24/10 Q1011

Decode

TAF

TAF SBRJ 201500Z 2018/2106 25010KT 8000 SCT020 TX25/2018Z TN19/2106Z BECMG 2019/2022 27010KT BECMG 2022/2024 22010KT BECMG 2100/2103 32005KT CAVOK RMK PHC

Decode

Departure Runways

ID Width Length Bearing (true) Bearing (mag) Surface Threshold Offset Overrun Length
02L 98 ft / 30 m 4,154 ft / 1,266 m 358.02° 20.84° Asphalt 0 ft / 0 m 80 ft / 24 m
02R 138 ft / 42 m 4,361 ft / 1,329 m 358.01° 20.83° Asphalt 0 ft / 0 m 80 ft / 24 m
20L 138 ft / 42 m 4,361 ft / 1,329 m 178.01° 200.83° Asphalt 0 ft / 0 m 80 ft / 24 m
20R 98 ft / 30 m 4,154 ft / 1,266 m 178.02° 200.84° Asphalt 0 ft / 0 m 95 ft / 29 m

SBVT

Details ICAO SBVT (VIX)
Name Goiabeiras
Region Brazil
Timezone America/Sao_Paulo (UTC-3.0)
Stats Elevation 11 ft / 3 m (AMSL)
Location -20.255611° -40.288893°
Runways 1
Magnetic Variation 23.828° W

METAR

Not found

TAF

TAF SBVT 201600Z 2018/2118 01010KT 8000 SCT030 TN24/2107Z TX28/2115Z TEMPO 2101/2105 4000 SHRA SCT010 SCT020 RMK PEA

Decode

Destination Runways

ID Width Length Bearing (true) Bearing (mag) Surface Threshold Offset Overrun Length
05 148 ft / 45 m 5,769 ft / 1,759 m 31.71° 55.54° Asphalt 0 ft / 0 m 189 ft / 58 m
23 148 ft / 45 m 5,769 ft / 1,759 m 211.71° 235.54° Asphalt 0 ft / 0 m 189 ft / 58 m

Popular Alternatives